sensor_id;sensor_type;location;lat;lon;timestamp;temperature;humidity
8180;DHT22;4131;48.810;11.892;2023-04-15T00:02:15;4.90;99.90
8180;DHT22;4131;48.810;11.892;2023-04-15T00:04:44;6.60;99.90
8180;DHT22;4131;48.810;11.892;2023-04-15T00:07:12;4.90;99.90
8180;DHT22;4131;48.810;11.892;2023-04-15T00:09:42;4.90;99.90
8180;DHT22;4131;48.810;11.892;2023-04-15T00:12:10;4.90;99.90
8180;DHT22;4131;48.810;11.892;2023-04-15T00:14:38;5.00;99.90
8180;DHT22;4131;48.810;11.892;2023-04-15T00:17:06;5.20;99.90
8180;DHT22;4131;48.810;11.892;2023-04-15T00:19:36;4.90;99.90
8180;DHT22;4131;48.810;11.892;2023-04-15T00:22:04;5.00;99.90
8180;DHT22;4131;48.810;11.892;2023-04-15T00:24:32;5.00;99.90
8180;DHT22;4131;48.810;11.892;2023-04-15T00:27:00;5.00;99.90
8180;DHT22;4131;48.810;11.892;2023-04-15T00:29:28;5.00;99.90
8180;DHT22;4131;48.810;11.892;2023-04-15T00:31:56;5.70;99.90
8180;DHT22;4131;48.810;11.892;2023-04-15T00:34:24;5.20;99.90
8180;DHT22;4131;48.810;11.892;2023-04-15T00:36:53;5.10;99.90
8180;DHT22;4131;48.810;11.892;2023-04-15T00:39:21;5.10;99.90
8180;DHT22;4131;48.810;11.892;2023-04-15T00:41:49;5.80;99.90
8180;DHT22;4131;48.810;11.892;2023-04-15T00:44:18;5.30;99.90
8180;DHT22;4131;48.810;11.892;2023-04-15T00:46:47;5.30;99.90
8180;DHT22;4131;48.810;11.892;2023-04-15T00:49:17;5.10;99.90
8180;DHT22;4131;48.810;11.892;2023-04-15T00:51:45;5.10;99.90
8180;DHT22;4131;48.810;11.892;2023-04-15T00:54:15;5.10;99.90
8180;DHT22;4131;48.810;11.892;2023-04-15T00:56:43;5.10;99.90
8180;DHT22;4131;48.810;11.892;2023-04-15T00:59:14;5.10;99.90
8180;DHT22;4131;48.810;11.892;2023-04-15T01:01:43;5.50;99.90
8180;DHT22;4131;48.810;11.892;2023-04-15T01:04:12;5.70;99.90
8180;DHT22;4131;48.810;11.892;2023-04-15T01:06:40;5.10;99.90
8180;DHT22;4131;48.810;11.892;2023-04-15T01:09:08;5.10;99.90
8180;DHT22;4131;48.810;11.892;2023-04-15T01:11:38;6.00;99.90
8180;DHT22;4131;48.810;11.892;2023-04-15T01:14:07;5.40;99.90
8180;DHT22;4131;48.810;11.892;2023-04-15T01:16:36;5.10;99.90
8180;DHT22;4131;48.810;11.892;2023-04-15T01:19:05;5.10;99.90
8180;DHT22;4131;48.810;11.892;2023-04-15T01:21:35;5.10;99.90
8180;DHT22;4131;48.810;11.892;2023-04-15T01:24:09;5.10;99.90
8180;DHT22;4131;48.810;11.892;2023-04-15T01:26:39;5.10;99.90
8180;DHT22;4131;48.810;11.892;2023-04-15T01:29:08;5.10;99.90
8180;DHT22;4131;48.810;11.892;2023-04-15T01:31:36;5.10;99.90
8180;DHT22;4131;48.810;11.892;2023-04-15T01:34:04;5.10;99.90
8180;DHT22;4131;48.810;11.892;2023-04-15T01:36:33;5.10;99.90
8180;DHT22;4131;48.810;11.892;2023-04-15T01:39:01;5.40;99.90
8180;DHT22;4131;48.810;11.892;2023-04-15T01:41:29;5.70;99.90
8180;DHT22;4131;48.810;11.892;2023-04-15T01:43:58;5.10;99.90
8180;DHT22;4131;48.810;11.892;2023-04-15T01:46:27;6.60;99.90
8180;DHT22;4131;48.810;11.892;2023-04-15T01:48:55;5.30;99.90
8180;DHT22;4131;48.810;11.892;2023-04-15T01:51:23;5.10;99.90
8180;DHT22;4131;48.810;11.892;2023-04-15T01:53:51;5.10;99.90
8180;DHT22;4131;48.810;11.892;2023-04-15T01:56:19;5.10;99.90
8180;DHT22;4131;48.810;11.892;2023-04-15T01:58:47;5.10;99.90
8180;DHT22;4131;48.810;11.892;2023-04-15T02:01:16;5.10;99.90
8180;DHT22;4131;48.810;11.892;2023-04-15T02:03:46;5.10;99.90
8180;DHT22;4131;48.810;11.892;2023-04-15T02:06:15;5.10;99.90
8180;DHT22;4131;48.810;11.892;2023-04-15T02:08:44;5.10;99.90
8180;DHT22;4131;48.810;11.892;2023-04-15T02:11:12;5.40;99.90
8180;DHT22;4131;48.810;11.892;2023-04-15T02:13:40;5.00;99.90
8180;DHT22;4131;48.810;11.892;2023-04-15T02:16:16;5.00;99.90
8180;DHT22;4131;48.810;11.892;2023-04-15T02:18:44;5.10;99.90
8180;DHT22;4131;48.810;11.892;2023-04-15T02:21:12;5.00;99.90
8180;DHT22;4131;48.810;11.892;2023-04-15T02:23:40;5.00;99.90
8180;DHT22;4131;48.810;11.892;2023-04-15T02:26:09;5.00;99.90
8180;DHT22;4131;48.810;11.892;2023-04-15T02:28:37;5.00;99.90
8180;DHT22;4131;48.810;11.892;2023-04-15T02:31:06;5.10;99.90
8180;DHT22;4131;48.810;11.892;2023-04-15T02:33:36;5.00;99.90
8180;DHT22;4131;48.810;11.892;2023-04-15T02:36:05;5.00;99.90
8180;DHT22;4131;48.810;11.892;2023-04-15T02:38:33;5.00;99.90
8180;DHT22;4131;48.810;11.892;2023-04-15T02:41:01;5.00;99.90
8180;DHT22;4131;48.810;11.892;2023-04-15T02:43:29;5.10;99.90
8180;DHT22;4131;48.810;11.892;2023-04-15T02:45:57;5.10;99.90
8180;DHT22;4131;48.810;11.892;2023-04-15T02:48:25;5.10;99.90
8180;DHT22;4131;48.810;11.892;2023-04-15T02:51:10;5.10;99.90
8180;DHT22;4131;48.810;11.892;2023-04-15T02:53:38;5.10;99.90
8180;DHT22;4131;48.810;11.892;2023-04-15T02:56:07;5.10;99.90
8180;DHT22;4131;48.810;11.892;2023-04-15T02:58:35;5.10;99.90
8180;DHT22;4131;48.810;11.892;2023-04-15T03:01:03;5.10;99.90
8180;DHT22;4131;48.810;11.892;2023-04-15T03:03:31;5.30;99.90
8180;DHT22;4131;48.810;11.892;2023-04-15T03:06:01;5.10;99.90
8180;DHT22;4131;48.810;11.892;2023-04-15T03:08:29;5.10;99.90
8180;DHT22;4131;48.810;11.892;2023-04-15T03:10:57;5.20;99.90
8180;DHT22;4131;48.810;11.892;2023-04-15T03:13:26;5.10;99.90
8180;DHT22;4131;48.810;11.892;2023-04-15T03:15:54;5.10;99.90
8180;DHT22;4131;48.810;11.892;2023-04-15T03:18:22;5.10;99.90
8180;DHT22;4131;48.810;11.892;2023-04-15T03:20:51;6.70;99.90
8180;DHT22;4131;48.810;11.892;2023-04-15T03:23:20;5.10;99.90
8180;DHT22;4131;48.810;11.892;2023-04-15T03:25:48;5.10;99.90
8180;DHT22;4131;48.810;11.892;2023-04-15T03:28:16;5.10;99.90
8180;DHT22;4131;48.810;11.892;2023-04-15T03:30:44;5.10;99.90
8180;DHT22;4131;48.810;11.892;2023-04-15T03:33:12;5.40;99.90
8180;DHT22;4131;48.810;11.892;2023-04-15T03:35:40;5.10;99.90
8180;DHT22;4131;48.810;11.892;2023-04-15T03:38:08;5.10;99.90
8180;DHT22;4131;48.810;11.892;2023-04-15T03:40:37;5.10;99.90
8180;DHT22;4131;48.810;11.892;2023-04-15T03:43:06;5.90;99.90
8180;DHT22;4131;48.810;11.892;2023-04-15T03:45:34;5.10;99.90
8180;DHT22;4131;48.810;11.892;2023-04-15T03:48:02;5.10;99.90
8180;DHT22;4131;48.810;11.892;2023-04-15T03:50:43;5.10;99.90
8180;DHT22;4131;48.810;11.892;2023-04-15T03:53:11;5.10;99.90
8180;DHT22;4131;48.810;11.892;2023-04-15T03:55:40;5.10;99.90
8180;DHT22;4131;48.810;11.892;2023-04-15T03:58:08;5.10;99.90
8180;DHT22;4131;48.810;11.892;2023-04-15T04:00:38;5.10;99.90
8180;DHT22;4131;48.810;11.892;2023-04-15T04:03:07;5.10;99.90
8180;DHT22;4131;48.810;11.892;2023-04-15T04:05:35;5.10;99.90
8180;DHT22;4131;48.810;11.892;2023-04-15T04:08:05;5.10;99.90
8180;DHT22;4131;48.810;11.892;2023-04-15T04:10:33;5.10;99.90
8180;DHT22;4131;48.810;11.892;2023-04-15T04:13:16;5.10;99.90
8180;DHT22;4131;48.810;11.892;2023-04-15T04:16:04;6.10;99.90
8180;DHT22;4131;48.810;11.892;2023-04-15T04:18:33;5.10;99.90
8180;DHT22;4131;48.810;11.892;2023-04-15T04:21:01;5.10;99.90
8180;DHT22;4131;48.810;11.892;2023-04-15T04:23:34;5.00;99.90
8180;DHT22;4131;48.810;11.892;2023-04-15T04:26:02;5.00;99.90
8180;DHT22;4131;48.810;11.892;2023-04-15T04:28:31;5.00;99.90
8180;DHT22;4131;48.810;11.892;2023-04-15T04:33:31;5.00;99.90
8180;DHT22;4131;48.810;11.892;2023-04-15T04:35:59;5.00;99.90
8180;DHT22;4131;48.810;11.892;2023-04-15T04:38:27;5.00;99.90
8180;DHT22;4131;48.810;11.892;2023-04-15T04:40:55;5.00;99.90
8180;DHT22;4131;48.810;11.892;2023-04-15T04:43:23;4.90;99.90
8180;DHT22;4131;48.810;11.892;2023-04-15T04:45:53;4.90;99.90
8180;DHT22;4131;48.810;11.892;2023-04-15T04:48:21;5.00;99.90
8180;DHT22;4131;48.810;11.892;2023-04-15T04:50:49;5.00;99.90
8180;DHT22;4131;48.810;11.892;2023-04-15T04:53:17;5.20;99.90
8180;DHT22;4131;48.810;11.892;2023-04-15T04:55:45;5.00;99.90
8180;DHT22;4131;48.810;11.892;2023-04-15T04:58:13;5.00;99.90
8180;DHT22;4131;48.810;11.892;2023-04-15T05:00:42;5.00;99.90
8180;DHT22;4131;48.810;11.892;2023-04-15T05:03:11;5.00;99.90
8180;DHT22;4131;48.810;11.892;2023-04-15T05:05:39;5.00;99.90
8180;DHT22;4131;48.810;11.892;2023-04-15T05:08:07;5.00;99.90
8180;DHT22;4131;48.810;11.892;2023-04-15T05:10:35;5.00;99.90
8180;DHT22;4131;48.810;11.892;2023-04-15T05:13:03;5.00;99.90
8180;DHT22;4131;48.810;11.892;2023-04-15T05:15:31;5.00;99.90
8180;DHT22;4131;48.810;11.892;2023-04-15T05:18:00;5.00;99.90
8180;DHT22;4131;48.810;11.892;2023-04-15T05:20:30;5.00;99.90
8180;DHT22;4131;48.810;11.892;2023-04-15T05:22:58;5.00;99.90
8180;DHT22;4131;48.810;11.892;2023-04-15T05:25:26;5.00;99.90
8180;DHT22;4131;48.810;11.892;2023-04-15T05:27:54;5.00;99.90
8180;DHT22;4131;48.810;11.892;2023-04-15T05:30:22;5.00;99.90
8180;DHT22;4131;48.810;11.892;2023-04-15T05:32:50;5.00;99.90
8180;DHT22;4131;48.810;11.892;2023-04-15T05:35:18;5.00;99.90
8180;DHT22;4131;48.810;11.892;2023-04-15T05:37:48;5.00;99.90
8180;DHT22;4131;48.810;11.892;2023-04-15T05:40:16;5.00;99.90
8180;DHT22;4131;48.810;11.892;2023-04-15T05:42:44;5.00;99.90
8180;DHT22;4131;48.810;11.892;2023-04-15T05:45:12;5.00;99.90
8180;DHT22;4131;48.810;11.892;2023-04-15T05:47:40;5.00;99.90
8180;DHT22;4131;48.810;11.892;2023-04-15T05:50:09;5.00;99.90
8180;DHT22;4131;48.810;11.892;2023-04-15T05:52:37;5.00;99.90
8180;DHT22;4131;48.810;11.892;2023-04-15T05:55:07;5.00;99.90
8180;DHT22;4131;48.810;11.892;2023-04-15T05:57:35;5.10;99.90
8180;DHT22;4131;48.810;11.892;2023-04-15T06:00:04;5.10;99.90
8180;DHT22;4131;48.810;11.892;2023-04-15T06:02:32;5.10;99.90
8180;DHT22;4131;48.810;11.892;2023-04-15T06:05:01;5.20;99.90
8180;DHT22;4131;48.810;11.892;2023-04-15T06:07:29;5.20;99.90
8180;DHT22;4131;48.810;11.892;2023-04-15T06:09:57;5.20;99.90
8180;DHT22;4131;48.810;11.892;2023-04-15T06:12:27;6.40;99.90
8180;DHT22;4131;48.810;11.892;2023-04-15T06:14:55;5.30;99.90
8180;DHT22;4131;48.810;11.892;2023-04-15T06:17:25;5.50;99.90
8180;DHT22;4131;48.810;11.892;2023-04-15T06:19:53;5.40;99.90
8180;DHT22;4131;48.810;11.892;2023-04-15T06:22:22;5.50;99.90
8180;DHT22;4131;48.810;11.892;2023-04-15T06:24:50;5.50;99.90
8180;DHT22;4131;48.810;11.892;2023-04-15T06:27:18;5.50;99.90
8180;DHT22;4131;48.810;11.892;2023-04-15T06:29:48;5.50;99.90
8180;DHT22;4131;48.810;11.892;2023-04-15T06:32:16;5.60;99.90
8180;DHT22;4131;48.810;11.892;2023-04-15T06:34:44;5.60;99.90
8180;DHT22;4131;48.810;11.892;2023-04-15T06:37:12;5.60;99.90
8180;DHT22;4131;48.810;11.892;2023-04-15T06:39:42;5.70;99.90
8180;DHT22;4131;48.810;11.892;2023-04-15T06:42:10;5.70;99.90
8180;DHT22;4131;48.810;11.892;2023-04-15T06:44:38;5.80;99.90
8180;DHT22;4131;48.810;11.892;2023-04-15T06:47:08;7.30;99.90
8180;DHT22;4131;48.810;11.892;2023-04-15T06:49:36;5.90;99.90
8180;DHT22;4131;48.810;11.892;2023-04-15T06:52:04;5.90;99.90
8180;DHT22;4131;48.810;11.892;2023-04-15T06:54:32;5.90;99.90
8180;DHT22;4131;48.810;11.892;2023-04-15T06:57:00;6.00;99.90
8180;DHT22;4131;48.810;11.892;2023-04-15T06:59:28;6.00;99.90
8180;DHT22;4131;48.810;11.892;2023-04-15T07:01:56;6.00;99.90
8180;DHT22;4131;48.810;11.892;2023-04-15T07:04:25;6.10;99.90
8180;DHT22;4131;48.810;11.892;2023-04-15T07:06:54;6.10;99.90
8180;DHT22;4131;48.810;11.892;2023-04-15T07:09:23;6.20;99.90
8180;DHT22;4131;48.810;11.892;2023-04-15T07:11:51;6.00;99.90
8180;DHT22;4131;48.810;11.892;2023-04-15T07:14:19;6.00;99.90
8180;DHT22;4131;48.810;11.892;2023-04-15T07:16:47;6.00;99.90
8180;DHT22;4131;48.810;11.892;2023-04-15T07:19:15;6.00;99.90
8180;DHT22;4131;48.810;11.892;2023-04-15T07:21:45;6.00;99.90
8180;DHT22;4131;48.810;11.892;2023-04-15T07:24:13;6.10;99.90
8180;DHT22;4131;48.810;11.892;2023-04-15T07:26:43;6.10;99.90
8180;DHT22;4131;48.810;11.892;2023-04-15T07:29:11;6.10;99.90
8180;DHT22;4131;48.810;11.892;2023-04-15T07:31:39;6.10;99.90
8180;DHT22;4131;48.810;11.892;2023-04-15T07:34:08;6.30;99.90
8180;DHT22;4131;48.810;11.892;2023-04-15T07:36:36;6.10;99.90
8180;DHT22;4131;48.810;11.892;2023-04-15T07:39:05;6.20;99.90
8180;DHT22;4131;48.810;11.892;2023-04-15T07:41:33;6.20;99.90
8180;DHT22;4131;48.810;11.892;2023-04-15T07:44:01;6.20;99.90
8180;DHT22;4131;48.810;11.892;2023-04-15T07:46:29;6.20;99.90
8180;DHT22;4131;48.810;11.892;2023-04-15T07:48:57;6.30;99.90
8180;DHT22;4131;48.810;11.892;2023-04-15T07:51:26;6.40;99.90
8180;DHT22;4131;48.810;11.892;2023-04-15T07:53:55;6.50;99.90
8180;DHT22;4131;48.810;11.892;2023-04-15T07:56:25;6.70;99.90
8180;DHT22;4131;48.810;11.892;2023-04-15T07:58:53;6.80;99.90
8180;DHT22;4131;48.810;11.892;2023-04-15T08:01:21;8.90;99.90
8180;DHT22;4131;48.810;11.892;2023-04-15T08:03:50;7.00;99.90
8180;DHT22;4131;48.810;11.892;2023-04-15T08:06:20;7.00;99.90
8180;DHT22;4131;48.810;11.892;2023-04-15T08:08:48;8.90;99.90
8180;DHT22;4131;48.810;11.892;2023-04-15T08:11:16;8.90;99.90
8180;DHT22;4131;48.810;11.892;2023-04-15T08:13:47;7.30;99.90
8180;DHT22;4131;48.810;11.892;2023-04-15T08:16:19;7.40;99.90
8180;DHT22;4131;48.810;11.892;2023-04-15T08:18:49;7.30;99.90
8180;DHT22;4131;48.810;11.892;2023-04-15T08:21:18;7.30;99.90
8180;DHT22;4131;48.810;11.892;2023-04-15T08:23:48;7.20;99.90
8180;DHT22;4131;48.810;11.892;2023-04-15T08:26:16;8.00;99.90
8180;DHT22;4131;48.810;11.892;2023-04-15T08:28:46;7.30;99.90
8180;DHT22;4131;48.810;11.892;2023-04-15T08:31:16;7.30;99.90
8180;DHT22;4131;48.810;11.892;2023-04-15T08:33:45;7.20;99.90
8180;DHT22;4131;48.810;11.892;2023-04-15T08:36:14;7.30;99.90
8180;DHT22;4131;48.810;11.892;2023-04-15T08:38:43;7.10;99.90
8180;DHT22;4131;48.810;11.892;2023-04-15T08:41:20;7.10;99.90
8180;DHT22;4131;48.810;11.892;2023-04-15T08:43:57;7.30;99.90
8180;DHT22;4131;48.810;11.892;2023-04-15T08:46:40;7.30;99.90
8180;DHT22;4131;48.810;11.892;2023-04-15T08:49:09;7.30;99.90
8180;DHT22;4131;48.810;11.892;2023-04-15T08:51:39;7.20;99.90
8180;DHT22;4131;48.810;11.892;2023-04-15T08:54:08;7.10;99.90
8180;DHT22;4131;48.810;11.892;2023-04-15T08:56:38;7.00;99.90
8180;DHT22;4131;48.810;11.892;2023-04-15T08:59:08;7.90;99.90
8180;DHT22;4131;48.810;11.892;2023-04-15T09:01:43;7.00;99.90
8180;DHT22;4131;48.810;11.892;2023-04-15T09:04:12;6.90;99.90
8180;DHT22;4131;48.810;11.892;2023-04-15T09:06:44;7.90;99.90
8180;DHT22;4131;48.810;11.892;2023-04-15T09:09:12;7.00;99.90
8180;DHT22;4131;48.810;11.892;2023-04-15T09:11:41;9.00;99.90
8180;DHT22;4131;48.810;11.892;2023-04-15T09:14:17;7.10;99.90
8180;DHT22;4131;48.810;11.892;2023-04-15T09:16:55;8.10;99.90
8180;DHT22;4131;48.810;11.892;2023-04-15T09:19:24;7.00;99.90
8180;DHT22;4131;48.810;11.892;2023-04-15T09:21:55;8.90;99.90
8180;DHT22;4131;48.810;11.892;2023-04-15T09:24:34;7.20;99.90
8180;DHT22;4131;48.810;11.892;2023-04-15T09:27:04;9.10;99.90
8180;DHT22;4131;48.810;11.892;2023-04-15T09:29:34;7.10;99.90
8180;DHT22;4131;48.810;11.892;2023-04-15T09:32:10;7.10;99.90
8180;DHT22;4131;48.810;11.892;2023-04-15T09:34:38;7.00;99.90
8180;DHT22;4131;48.810;11.892;2023-04-15T09:37:09;7.10;99.90
8180;DHT22;4131;48.810;11.892;2023-04-15T09:39:57;7.20;99.90
8180;DHT22;4131;48.810;11.892;2023-04-15T09:42:25;7.20;99.90
8180;DHT22;4131;48.810;11.892;2023-04-15T09:45:26;9.40;99.90
8180;DHT22;4131;48.810;11.892;2023-04-15T09:47:56;7.20;99.90
8180;DHT22;4131;48.810;11.892;2023-04-15T09:50:27;9.20;99.90
8180;DHT22;4131;48.810;11.892;2023-04-15T09:53:07;9.20;99.90
8180;DHT22;4131;48.810;11.892;2023-04-15T09:55:36;6.60;99.90
8180;DHT22;4131;48.810;11.892;2023-04-15T09:58:08;8.30;99.90
8180;DHT22;4131;48.810;11.892;2023-04-15T10:00:38;8.00;99.90
8180;DHT22;4131;48.810;11.892;2023-04-15T10:03:07;7.60;99.90
8180;DHT22;4131;48.810;11.892;2023-04-15T10:05:36;7.60;99.90
8180;DHT22;4131;48.810;11.892;2023-04-15T10:08:05;7.70;99.90
8180;DHT22;4131;48.810;11.892;2023-04-15T10:10:33;9.80;99.90
8180;DHT22;4131;48.810;11.892;2023-04-15T10:13:01;8.00;99.90
8180;DHT22;4131;48.810;11.892;2023-04-15T10:15:30;8.10;99.90
8180;DHT22;4131;48.810;11.892;2023-04-15T10:18:01;9.50;99.90
8180;DHT22;4131;48.810;11.892;2023-04-15T10:20:31;8.00;99.90
8180;DHT22;4131;48.810;11.892;2023-04-15T10:23:00;8.10;99.90
8180;DHT22;4131;48.810;11.892;2023-04-15T10:25:29;8.00;99.90
8180;DHT22;4131;48.810;11.892;2023-04-15T10:27:58;8.10;99.90
8180;DHT22;4131;48.810;11.892;2023-04-15T10:30:27;8.10;99.90
8180;DHT22;4131;48.810;11.892;2023-04-15T10:32:56;8.00;99.90
8180;DHT22;4131;48.810;11.892;2023-04-15T10:35:27;8.00;99.90
8180;DHT22;4131;48.810;11.892;2023-04-15T10:37:56;8.00;99.90
8180;DHT22;4131;48.810;11.892;2023-04-15T10:40:26;9.00;99.90
8180;DHT22;4131;48.810;11.892;2023-04-15T10:42:58;8.10;99.90
8180;DHT22;4131;48.810;11.892;2023-04-15T10:45:30;8.00;99.90
8180;DHT22;4131;48.810;11.892;2023-04-15T10:48:02;8.10;99.90
8180;DHT22;4131;48.810;11.892;2023-04-15T10:50:32;8.20;99.90
8180;DHT22;4131;48.810;11.892;2023-04-15T10:53:02;8.20;99.90
8180;DHT22;4131;48.810;11.892;2023-04-15T10:55:32;8.10;99.90
8180;DHT22;4131;48.810;11.892;2023-04-15T10:58:01;8.10;99.90
8180;DHT22;4131;48.810;11.892;2023-04-15T11:00:30;8.10;99.90
8180;DHT22;4131;48.810;11.892;2023-04-15T11:03:05;8.00;99.90
8180;DHT22;4131;48.810;11.892;2023-04-15T11:05:49;8.10;99.90
8180;DHT22;4131;48.810;11.892;2023-04-15T11:08:18;8.20;99.90
8180;DHT22;4131;48.810;11.892;2023-04-15T11:10:51;8.20;99.90
8180;DHT22;4131;48.810;11.892;2023-04-15T11:13:21;8.30;99.90
8180;DHT22;4131;48.810;11.892;2023-04-15T11:15:58;8.40;99.90
8180;DHT22;4131;48.810;11.892;2023-04-15T11:18:33;8.40;99.90
8180;DHT22;4131;48.810;11.892;2023-04-15T11:21:05;8.40;99.90
8180;DHT22;4131;48.810;11.892;2023-04-15T11:23:38;8.60;99.90
8180;DHT22;4131;48.810;11.892;2023-04-15T11:26:08;8.70;99.90
8180;DHT22;4131;48.810;11.892;2023-04-15T11:28:40;8.90;99.90
8180;DHT22;4131;48.810;11.892;2023-04-15T11:31:10;9.10;99.90
8180;DHT22;4131;48.810;11.892;2023-04-15T11:33:44;9.00;99.90
8180;DHT22;4131;48.810;11.892;2023-04-15T11:36:14;9.00;99.90
8180;DHT22;4131;48.810;11.892;2023-04-15T11:38:43;9.10;99.90
8180;DHT22;4131;48.810;11.892;2023-04-15T11:41:12;8.70;99.90
8180;DHT22;4131;48.810;11.892;2023-04-15T11:43:40;8.60;99.90
8180;DHT22;4131;48.810;11.892;2023-04-15T11:46:08;8.60;99.90
8180;DHT22;4131;48.810;11.892;2023-04-15T11:48:41;8.60;99.90
8180;DHT22;4131;48.810;11.892;2023-04-15T11:51:11;8.60;99.90
8180;DHT22;4131;48.810;11.892;2023-04-15T11:53:42;8.70;99.90
8180;DHT22;4131;48.810;11.892;2023-04-15T11:56:16;8.80;99.90
8180;DHT22;4131;48.810;11.892;2023-04-15T11:58:44;8.90;99.90
8180;DHT22;4131;48.810;11.892;2023-04-15T12:01:12;8.90;99.90
8180;DHT22;4131;48.810;11.892;2023-04-15T12:03:42;9.00;99.90
8180;DHT22;4131;48.810;11.892;2023-04-15T12:06:12;8.80;99.90
8180;DHT22;4131;48.810;11.892;2023-04-15T12:08:58;8.70;99.90
8180;DHT22;4131;48.810;11.892;2023-04-15T12:11:31;8.70;99.90
8180;DHT22;4131;48.810;11.892;2023-04-15T12:14:04;8.60;99.90
8180;DHT22;4131;48.810;11.892;2023-04-15T12:16:33;8.70;99.90
8180;DHT22;4131;48.810;11.892;2023-04-15T12:19:20;8.60;99.90
8180;DHT22;4131;48.810;11.892;2023-04-15T12:21:56;8.60;99.90
8180;DHT22;4131;48.810;11.892;2023-04-15T12:24:30;8.50;99.90
8180;DHT22;4131;48.810;11.892;2023-04-15T12:27:01;10.70;99.90
8180;DHT22;4131;48.810;11.892;2023-04-15T12:29:30;10.00;99.90
8180;DHT22;4131;48.810;11.892;2023-04-15T12:32:04;8.30;99.90
8180;DHT22;4131;48.810;11.892;2023-04-15T12:34:34;8.10;99.90
8180;DHT22;4131;48.810;11.892;2023-04-15T12:37:04;8.20;99.90
8180;DHT22;4131;48.810;11.892;2023-04-15T12:39:36;8.00;99.90
8180;DHT22;4131;48.810;11.892;2023-04-15T12:42:05;7.90;99.90
8180;DHT22;4131;48.810;11.892;2023-04-15T12:44:34;7.80;99.90
8180;DHT22;4131;48.810;11.892;2023-04-15T12:47:02;7.70;99.90
8180;DHT22;4131;48.810;11.892;2023-04-15T12:49:31;7.90;99.90
8180;DHT22;4131;48.810;11.892;2023-04-15T12:52:00;7.80;99.90
8180;DHT22;4131;48.810;11.892;2023-04-15T12:54:29;7.80;99.90
8180;DHT22;4131;48.810;11.892;2023-04-15T12:56:59;7.80;99.90
8180;DHT22;4131;48.810;11.892;2023-04-15T12:59:32;7.80;99.90
8180;DHT22;4131;48.810;11.892;2023-04-15T13:02:00;8.00;99.90
8180;DHT22;4131;48.810;11.892;2023-04-15T13:04:29;7.80;99.90
8180;DHT22;4131;48.810;11.892;2023-04-15T13:06:58;8.30;99.90
8180;DHT22;4131;48.810;11.892;2023-04-15T13:09:26;7.90;99.90
8180;DHT22;4131;48.810;11.892;2023-04-15T13:11:54;8.00;99.90
8180;DHT22;4131;48.810;11.892;2023-04-15T13:14:24;8.10;99.90
8180;DHT22;4131;48.810;11.892;2023-04-15T13:16:52;8.20;99.90
8180;DHT22;4131;48.810;11.892;2023-04-15T13:19:20;8.40;99.90
8180;DHT22;4131;48.810;11.892;2023-04-15T13:21:49;9.20;99.90
8180;DHT22;4131;48.810;11.892;2023-04-15T13:24:17;9.00;99.90
8180;DHT22;4131;48.810;11.892;2023-04-15T13:26:45;8.90;99.90
8180;DHT22;4131;48.810;11.892;2023-04-15T13:29:16;8.60;99.90
8180;DHT22;4131;48.810;11.892;2023-04-15T13:31:45;8.50;99.90
8180;DHT22;4131;48.810;11.892;2023-04-15T13:34:13;8.50;99.90
8180;DHT22;4131;48.810;11.892;2023-04-15T13:36:41;8.40;99.90
8180;DHT22;4131;48.810;11.892;2023-04-15T13:39:09;8.30;99.90
8180;DHT22;4131;48.810;11.892;2023-04-15T13:41:38;8.40;99.90
8180;DHT22;4131;48.810;11.892;2023-04-15T13:44:07;8.20;99.90
8180;DHT22;4131;48.810;11.892;2023-04-15T13:46:35;8.20;99.90
8180;DHT22;4131;48.810;11.892;2023-04-15T13:49:06;9.30;99.90
8180;DHT22;4131;48.810;11.892;2023-04-15T13:51:34;8.40;99.90
8180;DHT22;4131;48.810;11.892;2023-04-15T13:54:03;8.40;99.90
8180;DHT22;4131;48.810;11.892;2023-04-15T13:56:31;8.40;99.90
8180;DHT22;4131;48.810;11.892;2023-04-15T13:59:00;8.60;99.90
8180;DHT22;4131;48.810;11.892;2023-04-15T14:01:28;8.70;99.90
8180;DHT22;4131;48.810;11.892;2023-04-15T14:03:57;9.60;99.90
8180;DHT22;4131;48.810;11.892;2023-04-15T14:06:29;9.10;99.90
8180;DHT22;4131;48.810;11.892;2023-04-15T14:08:58;9.10;99.90
8180;DHT22;4131;48.810;11.892;2023-04-15T14:11:26;9.10;99.90
8180;DHT22;4131;48.810;11.892;2023-04-15T14:13:54;8.90;99.90
8180;DHT22;4131;48.810;11.892;2023-04-15T14:16:22;9.00;99.90
8180;DHT22;4131;48.810;11.892;2023-04-15T14:18:50;9.00;99.90
8180;DHT22;4131;48.810;11.892;2023-04-15T14:21:18;10.00;99.90
8180;DHT22;4131;48.810;11.892;2023-04-15T14:23:47;10.30;99.90
8180;DHT22;4131;48.810;11.892;2023-04-15T14:26:15;9.10;99.90
8180;DHT22;4131;48.810;11.892;2023-04-15T14:28:43;9.10;99.90
8180;DHT22;4131;48.810;11.892;2023-04-15T14:31:11;9.00;99.90
8180;DHT22;4131;48.810;11.892;2023-04-15T14:33:40;9.10;99.90
8180;DHT22;4131;48.810;11.892;2023-04-15T14:36:09;9.20;99.90
8180;DHT22;4131;48.810;11.892;2023-04-15T14:38:37;9.50;99.90
8180;DHT22;4131;48.810;11.892;2023-04-15T14:41:07;10.90;99.90
8180;DHT22;4131;48.810;11.892;2023-04-15T14:43:36;9.40;99.90
8180;DHT22;4131;48.810;11.892;2023-04-15T14:46:04;9.30;99.90
8180;DHT22;4131;48.810;11.892;2023-04-15T14:48:32;9.50;99.90
8180;DHT22;4131;48.810;11.892;2023-04-15T14:51:00;9.20;99.90
8180;DHT22;4131;48.810;11.892;2023-04-15T14:53:28;9.20;99.90
8180;DHT22;4131;48.810;11.892;2023-04-15T14:55:56;9.00;99.90
8180;DHT22;4131;48.810;11.892;2023-04-15T14:58:25;8.70;99.90
8180;DHT22;4131;48.810;11.892;2023-04-15T15:00:54;8.50;99.90
8180;DHT22;4131;48.810;11.892;2023-04-15T15:03:22;8.50;99.90
8180;DHT22;4131;48.810;11.892;2023-04-15T15:05:50;8.50;99.90
8180;DHT22;4131;48.810;11.892;2023-04-15T15:08:18;8.40;99.90
8180;DHT22;4131;48.810;11.892;2023-04-15T15:10:46;7.10;99.90
8180;DHT22;4131;48.810;11.892;2023-04-15T15:13:16;8.30;99.90
8180;DHT22;4131;48.810;11.892;2023-04-15T15:15:46;8.20;99.90
8180;DHT22;4131;48.810;11.892;2023-04-15T15:18:15;8.20;99.90
8180;DHT22;4131;48.810;11.892;2023-04-15T15:20:45;8.20;99.90
8180;DHT22;4131;48.810;11.892;2023-04-15T15:23:13;8.10;99.90
8180;DHT22;4131;48.810;11.892;2023-04-15T15:25:41;8.30;99.90
8180;DHT22;4131;48.810;11.892;2023-04-15T15:28:09;8.30;99.90
8180;DHT22;4131;48.810;11.892;2023-04-15T15:30:37;8.40;99.90
8180;DHT22;4131;48.810;11.892;2023-04-15T15:33:06;8.50;99.90
8180;DHT22;4131;48.810;11.892;2023-04-15T15:35:34;8.60;99.90
8180;DHT22;4131;48.810;11.892;2023-04-15T15:38:02;8.90;99.90
8180;DHT22;4131;48.810;11.892;2023-04-15T15:40:31;8.60;99.90
8180;DHT22;4131;48.810;11.892;2023-04-15T15:42:58;8.70;99.90
8180;DHT22;4131;48.810;11.892;2023-04-15T15:45:27;8.60;99.90
8180;DHT22;4131;48.810;11.892;2023-04-15T15:47:55;8.50;99.90
8180;DHT22;4131;48.810;11.892;2023-04-15T15:50:26;8.50;99.90
8180;DHT22;4131;48.810;11.892;2023-04-15T15:52:54;8.30;99.90
8180;DHT22;4131;48.810;11.892;2023-04-15T15:55:22;8.20;99.90
8180;DHT22;4131;48.810;11.892;2023-04-15T15:57:51;8.20;99.90
8180;DHT22;4131;48.810;11.892;2023-04-15T16:00:19;8.20;99.90
8180;DHT22;4131;48.810;11.892;2023-04-15T16:02:48;8.30;99.90
8180;DHT22;4131;48.810;11.892;2023-04-15T16:05:34;8.30;99.90
8180;DHT22;4131;48.810;11.892;2023-04-15T16:08:03;8.30;99.90
8180;DHT22;4131;48.810;11.892;2023-04-15T16:10:31;8.20;99.90
8180;DHT22;4131;48.810;11.892;2023-04-15T16:12:59;8.60;99.90
8180;DHT22;4131;48.810;11.892;2023-04-15T16:15:27;8.10;99.90
8180;DHT22;4131;48.810;11.892;2023-04-15T16:17:56;8.10;99.90
8180;DHT22;4131;48.810;11.892;2023-04-15T16:20:24;8.10;99.90